createdAt,value
2019-05-25T00:00:14.948Z,68.06
2019-05-25T00:01:14.915Z,68.16
2019-05-25T00:02:14.936Z,68.88
2019-05-25T00:03:14.896Z,68.70
2019-05-25T00:04:14.904Z,68.98
2019-05-25T00:05:14.889Z,68.40
2019-05-25T00:06:14.869Z,68.60
2019-05-25T00:07:14.909Z,69.11
2019-05-25T00:08:14.853Z,68.09
2019-05-25T00:09:14.825Z,67.65
2019-05-25T00:10:14.818Z,68.19
2019-05-25T00:11:14.824Z,68.91
2019-05-25T00:12:14.800Z,69.62
2019-05-25T00:13:14.820Z,68.09
2019-05-25T00:14:14.791Z,67.99
2019-05-25T00:15:14.761Z,67.18
2019-05-25T00:16:14.746Z,68.43
2019-05-25T00:17:14.737Z,66.69
2019-05-25T00:18:14.723Z,67.79
2019-05-25T00:19:14.715Z,68.19
2019-05-25T00:20:14.728Z,67.18
2019-05-25T00:21:14.699Z,66.15
2019-05-25T00:22:14.687Z,66.39
2019-05-25T00:23:14.665Z,64.96
2019-05-25T00:24:14.662Z,64.75
2019-05-25T00:25:14.649Z,65.16
2019-05-25T00:26:14.671Z,65.47
2019-05-25T00:27:14.626Z,65.16
2019-05-25T00:28:14.630Z,66.15
2019-05-25T00:29:14.598Z,65.26
2019-05-25T00:30:14.591Z,66.69
2019-05-25T00:31:14.583Z,66.59
2019-05-25T00:32:14.593Z,65.88
2019-05-25T00:33:14.558Z,65.26
2019-05-25T00:34:14.541Z,64.75
2019-05-25T00:35:14.534Z,64.86
2019-05-25T00:36:14.523Z,65.37
2019-05-25T00:37:14.539Z,67.21
2019-05-25T00:38:14.511Z,67.21
2019-05-25T00:39:14.502Z,65.67
2019-05-25T00:40:14.476Z,66.39
2019-05-25T00:41:14.462Z,66.80
2019-05-25T00:42:14.454Z,66.93
2019-05-25T00:43:14.448Z,66.52
2019-05-25T00:44:14.455Z,66.83
2019-05-25T00:45:14.433Z,65.70
2019-05-25T00:46:14.411Z,65.40
2019-05-25T00:47:14.400Z,66.11
2019-05-25T00:48:14.383Z,66.72
2019-05-25T00:49:14.376Z,67.13
2019-05-25T00:50:14.392Z,66.35
2019-05-25T00:51:14.367Z,65.63
2019-05-25T00:52:14.366Z,65.87
2019-05-25T00:53:14.325Z,66.25
2019-05-25T00:54:27.143Z,66.89
2019-05-25T00:55:15.325Z,67.60
2019-05-25T00:56:14.304Z,68.22
2019-05-25T00:57:14.286Z,67.10
2019-05-25T00:58:14.286Z,68.73
2019-05-25T00:59:14.270Z,68.22
2019-05-25T01:00:14.261Z,68.25
2019-05-25T01:01:14.290Z,68.55
2019-05-25T01:02:14.235Z,68.76
2019-05-25T01:03:14.217Z,69.38
2019-05-25T01:04:14.234Z,68.66
2019-05-25T01:05:14.187Z,68.97
2019-05-25T01:06:14.185Z,69.07
2019-05-25T01:07:14.183Z,70.91
2019-05-25T01:08:14.154Z,69.31
2019-05-25T01:09:14.162Z,69.61
2019-05-25T01:10:14.130Z,69.71
2019-05-25T01:11:14.143Z,70.12
2019-05-25T01:12:14.126Z,70.74
2019-05-25T01:13:14.117Z,70.77
2019-05-25T01:14:14.123Z,70.12
2019-05-25T01:15:14.080Z,70.98
2019-05-25T01:16:14.063Z,71.80
2019-05-25T01:17:14.051Z,71.80
2019-05-25T01:18:14.056Z,70.57
2019-05-25T01:19:14.083Z,70.36
2019-05-25T01:20:14.021Z,69.95
2019-05-25T01:21:14.011Z,70.67
2019-05-25T01:22:14.000Z,70.77
2019-05-25T01:23:14.007Z,69.54
2019-05-25T01:24:13.991Z,69.03
2019-05-25T01:25:13.992Z,68.73
2019-05-25T01:26:13.956Z,69.24
2019-05-25T01:27:13.944Z,69.13
2019-05-25T01:28:13.952Z,69.34
2019-05-25T01:29:13.942Z,68.83
2019-05-25T01:30:13.908Z,68.83
2019-05-25T01:31:13.914Z,69.54
2019-05-25T01:32:13.892Z,71.39
2019-05-25T01:33:13.887Z,71.18
2019-05-25T01:34:13.886Z,71.18
2019-05-25T01:35:13.867Z,72.41
2019-05-25T01:36:13.858Z,72.44
2019-05-25T01:37:13.858Z,71.93
2019-05-25T01:38:13.829Z,69.47
2019-05-25T01:39:13.816Z,69.57
2019-05-25T01:40:13.817Z,71.93
2019-05-25T01:41:13.788Z,70.60
2019-05-25T01:42:13.782Z,71.11
2019-05-25T01:43:13.787Z,71.28
2019-05-25T01:44:13.759Z,70.91
2019-05-25T01:45:13.748Z,71.62
2019-05-25T01:46:13.741Z,71.01
2019-05-25T01:47:13.725Z,70.70
2019-05-25T01:48:13.727Z,70.84
2019-05-25T01:49:13.727Z,70.73
2019-05-25T01:50:13.696Z,70.64
2019-05-25T01:51:13.693Z,71.66
2019-05-25T01:52:13.673Z,71.86
2019-05-25T01:53:13.688Z,72.27
2019-05-25T01:54:13.646Z,71.86
2019-05-25T01:55:13.666Z,71.90
2019-05-25T01:56:13.637Z,72.51
2019-05-25T01:57:13.618Z,72.82
2019-05-25T01:58:13.627Z,73.33
2019-05-25T01:59:13.593Z,72.51
2019-05-25T02:00:13.597Z,72.51
2019-05-25T02:01:13.592Z,72.51
2019-05-25T02:02:13.597Z,72.41
2019-05-25T02:03:13.555Z,72.20
2019-05-25T02:04:13.539Z,72.10
2019-05-25T02:05:13.530Z,71.90
2019-05-25T02:06:13.533Z,71.72
2019-05-25T02:07:13.523Z,71.90
2019-05-25T02:08:13.505Z,72.00
2019-05-25T02:09:13.490Z,71.39
2019-05-25T02:10:13.479Z,71.39
2019-05-25T02:11:13.490Z,72.44
2019-05-25T02:12:13.473Z,72.44
2019-05-25T02:13:13.462Z,72.96
2019-05-25T02:14:13.434Z,72.55
2019-05-25T02:15:13.433Z,72.75
2019-05-25T02:16:13.423Z,72.96
2019-05-25T02:17:13.410Z,72.55
2019-05-25T02:18:13.393Z,72.96
2019-05-25T02:19:13.414Z,72.99
2019-05-25T02:20:13.371Z,73.61
2019-05-25T02:21:13.396Z,73.71
2019-05-25T02:22:13.368Z,73.61
2019-05-25T02:23:13.345Z,73.61
2019-05-25T02:24:13.330Z,73.61
2019-05-25T02:25:18.627Z,73.81
2019-05-25T02:26:14.329Z,73.40
2019-05-25T02:27:13.331Z,73.71
2019-05-25T02:28:13.285Z,73.61
2019-05-25T02:29:13.275Z,73.71
2019-05-25T02:30:13.282Z,73.71
2019-05-25T02:31:13.274Z,73.81
2019-05-25T02:32:13.286Z,75.25
2019-05-25T02:33:13.260Z,75.59
2019-05-25T02:34:13.222Z,75.70
2019-05-25T02:35:13.227Z,76.00
2019-05-25T02:36:13.216Z,75.49
2019-05-25T02:37:13.210Z,75.59
2019-05-25T02:38:13.186Z,76.31
2019-05-25T02:39:13.173Z,75.90
2019-05-25T02:40:13.188Z,76.21
2019-05-25T02:41:13.153Z,75.90
2019-05-25T02:42:13.165Z,76.42
2019-05-25T02:43:13.147Z,76.04
2019-05-25T02:44:13.116Z,75.73
2019-05-25T02:45:13.112Z,76.35
2019-05-25T02:46:13.099Z,77.48
2019-05-25T02:47:13.119Z,77.68
2019-05-25T02:48:13.077Z,77.68
2019-05-25T02:49:13.084Z,77.78
2019-05-25T02:50:13.060Z,77.51
2019-05-25T02:51:13.044Z,77.99
2019-05-25T02:52:13.034Z,78.85
2019-05-25T02:53:13.029Z,79.05
2019-05-25T02:54:13.021Z,78.85
2019-05-25T02:55:13.022Z,78.23
2019-05-25T02:56:12.996Z,78.50
2019-05-25T02:57:13.000Z,78.50
2019-05-25T02:58:12.979Z,78.50
2019-05-25T02:59:12.960Z,78.40
2019-05-25T03:00:12.964Z,78.50
2019-05-25T03:01:12.968Z,78.71
2019-05-25T03:02:12.935Z,78.75
2019-05-25T03:03:12.948Z,78.71
2019-05-25T03:04:12.918Z,79.05
2019-05-25T03:05:12.904Z,79.36
2019-05-25T03:06:13.164Z,79.05
2019-05-25T03:07:12.948Z,79.26
2019-05-25T03:08:12.873Z,79.67
2019-05-25T03:09:12.858Z,79.57
2019-05-25T03:10:12.844Z,79.67
2019-05-25T03:11:12.844Z,79.77
2019-05-25T03:12:12.834Z,79.57
2019-05-25T03:13:12.832Z,79.88
2019-05-25T03:14:12.807Z,80.60
2019-05-25T03:15:12.818Z,80.70
2019-05-25T03:16:12.786Z,80.94
2019-05-25T03:17:12.795Z,81.32
2019-05-25T03:18:12.761Z,82.28
2019-05-25T03:19:12.767Z,82.24
2019-05-25T03:20:12.741Z,83.06
2019-05-25T03:21:12.738Z,83.06
2019-05-25T03:22:12.719Z,82.45
2019-05-25T03:23:12.711Z,82.76
2019-05-25T03:24:12.700Z,82.65
2019-05-25T03:25:12.705Z,82.82
2019-05-25T03:26:12.681Z,82.51
2019-05-25T03:27:12.673Z,82.82
2019-05-25T03:28:12.670Z,81.86
2019-05-25T03:29:12.648Z,81.04
2019-05-25T03:30:12.638Z,81.45
2019-05-25T03:31:12.652Z,81.45
2019-05-25T03:32:12.622Z,80.73
2019-05-25T03:33:12.607Z,80.73
2019-05-25T03:34:12.592Z,81.24
2019-05-25T03:35:12.592Z,81.45
2019-05-25T03:36:12.577Z,81.04
2019-05-25T03:37:12.582Z,80.58
2019-05-25T03:38:12.559Z,81.34
2019-05-25T03:39:12.563Z,81.24
2019-05-25T03:40:12.534Z,80.83
2019-05-25T03:41:12.520Z,81.04
2019-05-25T03:42:12.521Z,81.24
2019-05-25T03:43:12.536Z,82.06
2019-05-25T03:44:12.481Z,81.76
2019-05-25T03:45:12.487Z,81.96
2019-05-25T03:46:12.460Z,82.27
2019-05-25T03:47:12.454Z,82.47
2019-05-25T03:48:12.475Z,82.27
2019-05-25T03:49:12.446Z,82.57
2019-05-25T03:50:12.425Z,82.68
2019-05-25T03:51:12.411Z,82.89
2019-05-25T03:52:12.405Z,82.57
2019-05-25T03:53:12.387Z,82.75
2019-05-25T03:54:12.378Z,82.47
2019-05-25T03:55:12.379Z,82.64
2019-05-25T03:56:12.381Z,82.75
2019-05-25T03:57:12.345Z,82.84
2019-05-25T03:58:12.341Z,82.95
2019-05-25T03:59:12.330Z,82.47
2019-05-25T04:00:12.311Z,82.78
2019-05-25T04:01:12.326Z,82.99
2019-05-25T04:02:12.303Z,82.57
2019-05-25T04:03:12.288Z,83.67
2019-05-25T04:04:12.272Z,84.01
2019-05-25T04:05:12.262Z,83.81
2019-05-25T04:06:12.243Z,83.87
2019-05-25T04:07:12.260Z,83.26
2019-05-25T04:08:12.258Z,83.81
2019-05-25T04:09:12.210Z,83.15
2019-05-25T04:10:12.203Z,82.95
2019-05-25T04:11:12.197Z,83.87
2019-05-25T04:12:12.178Z,84.90
2019-05-25T04:13:12.184Z,83.67
2019-05-25T04:14:12.172Z,83.26
2019-05-25T04:15:12.167Z,83.94
2019-05-25T04:16:12.136Z,82.91
2019-05-25T04:17:12.126Z,82.91
2019-05-25T04:18:12.132Z,82.70
2019-05-25T04:19:12.134Z,81.88
2019-05-25T04:20:12.100Z,81.99
2019-05-25T04:21:12.112Z,81.85
2019-05-25T04:22:12.081Z,82.09
2019-05-25T04:23:12.074Z,81.85
2019-05-25T04:24:12.067Z,81.85
2019-05-25T04:25:12.083Z,81.23
2019-05-25T04:26:21.960Z,80.92
2019-05-25T04:27:13.030Z,81.02
2019-05-25T04:28:12.043Z,80.51
2019-05-25T04:29:12.005Z,80.41
2019-05-25T04:30:12.012Z,80.27
2019-05-25T04:31:12.650Z,81.09
2019-05-25T04:32:11.994Z,80.62
2019-05-25T04:33:11.980Z,80.07
2019-05-25T04:34:11.964Z,80.37
2019-05-25T04:35:11.942Z,80.85
2019-05-25T04:36:11.952Z,79.93
2019-05-25T04:37:11.954Z,79.62
2019-05-25T04:38:11.923Z,79.41
2019-05-25T04:39:11.906Z,78.70
2019-05-25T04:40:11.890Z,77.94
2019-05-25T04:41:11.879Z,78.34
2019-05-25T04:42:11.893Z,77.35
2019-05-25T04:43:11.877Z,76.84
2019-05-25T04:44:11.845Z,75.51
2019-05-25T04:45:11.833Z,75.55
2019-05-25T04:46:11.855Z,74.73
2019-05-25T04:47:26.177Z,72.08
2019-05-25T04:48:12.833Z,71.47
2019-05-25T04:49:11.796Z,67.43
2019-05-25T04:50:11.779Z,66.05
2019-05-25T04:51:11.794Z,65.61
2019-05-25T04:52:11.758Z,63.78
2019-05-25T04:53:11.768Z,62.60
2019-05-25T04:54:11.760Z,61.97
2019-05-25T04:55:11.728Z,62.85
2019-05-25T04:56:11.740Z,61.00
2019-05-25T04:57:11.707Z,59.55
2019-05-25T04:58:11.702Z,59.14
2019-05-25T04:59:11.687Z,58.92
2019-05-25T05:00:11.702Z,58.69
2019-05-25T05:01:11.694Z,59.27
2019-05-25T05:02:11.641Z,57.44
2019-05-25T05:03:11.628Z,57.01
2019-05-25T05:04:11.613Z,57.09
2019-05-25T05:05:11.604Z,57.18
2019-05-25T05:06:11.615Z,57.36
2019-05-25T05:07:11.605Z,57.03
2019-05-25T05:08:11.568Z,55.01
2019-05-25T05:09:11.587Z,54.79
2019-05-25T05:10:11.543Z,54.99
2019-05-25T05:11:11.574Z,54.56
2019-05-25T05:12:11.543Z,54.36
2019-05-25T05:13:11.524Z,54.56
2019-05-25T05:14:11.502Z,55.24
2019-05-25T05:15:11.525Z,54.71
2019-05-25T05:16:11.484Z,55.11
2019-05-25T05:17:11.526Z,53.47
2019-05-25T05:18:11.528Z,54.30
2019-05-25T05:19:11.442Z,54.48
2019-05-25T05:20:11.435Z,53.78
2019-05-25T05:21:11.428Z,54.66
2019-05-25T05:22:11.412Z,53.12
2019-05-25T05:23:11.399Z,53.65
2019-05-25T05:24:11.407Z,52.82
2019-05-25T05:25:12.229Z,53.17
2019-05-25T05:26:11.375Z,52.34
2019-05-25T05:27:11.357Z,54.03
2019-05-25T05:28:11.348Z,53.50
2019-05-25T05:29:11.331Z,53.17
2019-05-25T05:30:11.340Z,52.47
2019-05-25T05:31:23.201Z,51.46
2019-05-25T05:32:26.743Z,53.50
2019-05-25T05:33:12.285Z,52.59
2019-05-25T05:34:11.274Z,53.17
2019-05-25T05:35:11.268Z,52.87
2019-05-25T05:36:11.266Z,51.44
2019-05-25T05:37:11.244Z,51.01
2019-05-25T05:38:11.241Z,51.21
2019-05-25T05:39:11.235Z,51.11
2019-05-25T05:40:11.213Z,51.29
2019-05-25T05:41:11.197Z,51.14
2019-05-25T05:42:11.203Z,51.59
2019-05-25T05:43:11.174Z,53.30
2019-05-25T05:44:11.193Z,52.47
2019-05-25T05:45:11.162Z,51.66
2019-05-25T05:46:11.139Z,52.94
2019-05-25T05:47:11.133Z,52.09
2019-05-25T05:48:11.151Z,53.20
2019-05-25T05:49:11.134Z,51.09
2019-05-25T05:50:11.104Z,51.39
2019-05-25T05:51:11.094Z,50.99
2019-05-25T05:52:11.075Z,51.37
2019-05-25T05:53:11.069Z,49.46
2019-05-25T05:54:11.070Z,51.37
2019-05-25T05:55:11.043Z,49.46
2019-05-25T05:56:11.034Z,50.16
2019-05-25T05:57:12.649Z,49.88
2019-05-25T05:58:11.015Z,51.06
2019-05-25T05:59:11.004Z,50.13
2019-05-25T06:00:11.013Z,48.78
2019-05-25T06:01:10.983Z,52.51
2019-05-25T06:02:10.970Z,50.61
2019-05-25T06:03:10.961Z,50.01
2019-05-25T06:04:10.986Z,51.61
2019-05-25T06:05:10.936Z,51.06
2019-05-25T06:06:10.950Z,51.54
2019-05-25T06:07:10.915Z,49.79
2019-05-25T06:08:10.904Z,49.79
2019-05-25T06:09:10.894Z,48.38
2019-05-25T06:10:10.882Z,48.57
2019-05-25T06:11:10.871Z,49.76
2019-05-25T06:12:10.879Z,48.76
2019-05-25T06:13:10.850Z,48.26
2019-05-25T06:14:10.836Z,49.64
2019-05-25T06:15:10.829Z,46.92
2019-05-25T06:16:10.815Z,46.74
2019-05-25T06:17:10.810Z,47.46
2019-05-25T06:18:10.824Z,49.62
2019-05-25T06:19:10.786Z,48.10
2019-05-25T06:20:10.783Z,45.75
2019-05-25T06:21:10.767Z,47.65
2019-05-25T06:22:10.752Z,45.07
2019-05-25T06:23:12.562Z,45.94
2019-05-25T06:24:10.756Z,48.63
2019-05-25T06:25:10.747Z,52.14
2019-05-25T06:26:10.712Z,51.31
2019-05-25T06:27:10.700Z,54.99
2019-05-25T06:28:10.693Z,55.69
2019-05-25T06:29:10.681Z,54.43
2019-05-25T06:30:10.690Z,57.58
2019-05-25T06:31:10.657Z,54.25
2019-05-25T06:32:10.647Z,51.49
2019-05-25T06:33:10.634Z,53.42
2019-05-25T06:34:10.625Z,51.86
2019-05-25T06:35:10.623Z,51.76
2019-05-25T06:36:10.620Z,51.49
2019-05-25T06:37:10.592Z,51.04
2019-05-25T06:38:10.585Z,50.41
2019-05-25T06:39:10.576Z,51.76
2019-05-25T06:40:10.564Z,49.71
2019-05-25T06:41:10.554Z,48.31
2019-05-25T06:42:10.558Z,48.36
2019-05-25T06:43:10.530Z,51.59
2019-05-25T06:44:10.523Z,49.71
2019-05-25T06:45:10.511Z,49.89
2019-05-25T06:46:10.501Z,49.51
2019-05-25T06:47:10.496Z,49.76
2019-05-25T06:48:10.495Z,52.84
2019-05-25T06:49:10.468Z,50.87
2019-05-25T06:50:10.455Z,48.57
2019-05-25T06:51:10.444Z,50.04
2019-05-25T06:52:10.437Z,49.49
2019-05-25T06:53:10.427Z,50.16
2019-05-25T06:54:10.428Z,48.49
2019-05-25T06:55:10.420Z,50.62
2019-05-25T06:56:10.392Z,49.29
2019-05-25T06:57:10.390Z,48.41
2019-05-25T06:58:10.372Z,50.13
2019-05-25T06:59:10.366Z,51.21
2019-05-25T07:00:10.372Z,49.96
2019-05-25T07:01:10.341Z,48.94
2019-05-25T07:02:10.330Z,49.74
2019-05-25T07:03:10.329Z,48.79
2019-05-25T07:04:10.314Z,49.99
2019-05-25T07:05:10.307Z,50.02
2019-05-25T07:06:10.305Z,48.17
2019-05-25T07:07:10.282Z,47.81
2019-05-25T07:08:10.272Z,46.80
2019-05-25T07:09:10.260Z,48.04
2019-05-25T07:10:10.322Z,48.58
2019-05-25T07:11:10.237Z,50.59
2019-05-25T07:12:10.247Z,48.34
2019-05-25T07:13:10.217Z,48.52
2019-05-25T07:14:10.209Z,48.10
2019-05-25T07:15:10.198Z,47.99
2019-05-25T07:16:10.189Z,47.60
2019-05-25T07:17:10.183Z,48.90
2019-05-25T07:18:10.200Z,48.22
2019-05-25T07:19:10.161Z,46.38
2019-05-25T07:20:10.148Z,46.64
2019-05-25T07:21:10.140Z,45.70
2019-05-25T07:22:10.126Z,43.08
2019-05-25T07:23:10.116Z,42.41
2019-05-25T07:24:10.134Z,44.29
2019-05-25T07:25:10.098Z,44.03
2019-05-25T07:26:10.090Z,44.17
2019-05-25T07:27:10.077Z,47.07
2019-05-25T07:28:10.066Z,47.67
2019-05-25T07:29:10.082Z,45.95
2019-05-25T07:30:10.077Z,45.85
2019-05-25T07:31:10.033Z,44.13
2019-05-25T07:32:10.025Z,43.73
2019-05-25T07:33:10.064Z,43.49
2019-05-25T07:34:10.008Z,44.05
2019-05-25T07:35:09.994Z,42.93
2019-05-25T07:36:10.006Z,43.25
2019-05-25T07:37:09.973Z,42.03
2019-05-25T07:38:09.967Z,43.90
2019-05-25T07:39:09.961Z,43.29
2019-05-25T07:40:09.946Z,42.97
2019-05-25T07:41:09.934Z,43.30
2019-05-25T07:42:09.951Z,43.98
2019-05-25T07:43:09.923Z,43.90
2019-05-25T07:44:09.907Z,44.98
2019-05-25T07:45:09.901Z,43.16
2019-05-25T07:46:09.889Z,43.94
2019-05-25T07:47:09.873Z,42.75
2019-05-25T07:48:09.886Z,41.91
2019-05-25T07:49:09.862Z,45.76
2019-05-25T07:50:09.980Z,44.57
2019-05-25T07:51:09.843Z,47.40
2019-05-25T07:52:09.828Z,45.67
2019-05-25T07:53:09.821Z,47.02
2019-05-25T07:54:09.835Z,48.49
2019-05-25T07:55:09.801Z,48.16
2019-05-25T07:56:09.788Z,48.72
2019-05-25T07:57:09.781Z,47.66
2019-05-25T07:58:17.296Z,48.52
2019-05-25T07:59:10.775Z,50.05
2019-05-25T08:00:09.751Z,50.99
2019-05-25T08:01:09.740Z,48.42
2019-05-25T08:02:09.732Z,47.25
2019-05-25T08:03:09.723Z,44.23
2019-05-25T08:04:09.711Z,42.95
2019-05-25T08:05:09.724Z,43.91
2019-05-25T08:06:09.694Z,44.13
2019-05-25T08:07:09.680Z,44.89
2019-05-25T08:08:09.670Z,43.49
2019-05-25T08:09:09.663Z,44.09
2019-05-25T08:10:09.687Z,44.17
2019-05-25T08:11:09.665Z,45.06
2019-05-25T08:12:09.635Z,45.06
2019-05-25T08:13:09.622Z,43.27
2019-05-25T08:14:09.615Z,42.13
2019-05-25T08:15:09.618Z,44.02
2019-05-25T08:16:09.592Z,44.20
2019-05-25T08:17:09.597Z,42.69
2019-05-25T08:18:09.582Z,42.89
2019-05-25T08:19:09.577Z,45.21
2019-05-25T08:20:09.559Z,46.50
2019-05-25T08:21:09.543Z,45.51
2019-05-25T08:22:09.537Z,43.97
2019-05-25T08:23:09.545Z,44.07
2019-05-25T08:24:09.522Z,43.97
2019-05-25T08:25:09.505Z,43.47
2019-05-25T08:26:09.497Z,44.07
2019-05-25T08:27:09.486Z,44.37
2019-05-25T08:28:09.489Z,45.66
2019-05-25T08:29:09.484Z,44.43
2019-05-25T08:30:09.461Z,47.55
2019-05-25T08:31:09.454Z,48.30
2019-05-25T08:32:09.439Z,46.73
2019-05-25T08:33:09.433Z,45.13
2019-05-25T08:34:09.438Z,46.59
2019-05-25T08:35:09.454Z,47.54
2019-05-25T08:36:09.417Z,47.78
2019-05-25T08:37:09.390Z,49.93
2019-05-25T08:38:09.379Z,51.14
2019-05-25T08:39:09.372Z,52.55
2019-05-25T08:40:09.368Z,51.51
2019-05-25T08:41:09.377Z,50.96
2019-05-25T08:42:09.344Z,50.09
2019-05-25T08:43:09.331Z,49.39
2019-05-25T08:44:09.324Z,48.58
2019-05-25T08:45:09.317Z,49.51
2019-05-25T08:46:09.316Z,51.26
2019-05-25T08:47:09.310Z,53.34
2019-05-25T08:48:09.284Z,53.47
2019-05-25T08:49:09.283Z,53.57
2019-05-25T08:50:09.270Z,53.05
2019-05-25T08:51:09.261Z,54.75
2019-05-25T08:52:09.244Z,50.44
2019-05-25T08:53:09.256Z,51.97
2019-05-25T08:54:09.228Z,50.81
2019-05-25T08:55:09.219Z,52.04
2019-05-25T08:56:09.204Z,51.51
2019-05-25T08:57:09.197Z,51.87
2019-05-25T08:58:09.185Z,51.24
2019-05-25T08:59:09.198Z,54.10
2019-05-25T09:00:09.171Z,53.22
2019-05-25T09:01:09.150Z,54.13
2019-05-25T09:02:09.206Z,56.04
2019-05-25T09:03:09.133Z,54.71
2019-05-25T09:04:09.121Z,54.47
2019-05-25T09:05:09.145Z,51.49
2019-05-25T09:06:09.127Z,49.40
2019-05-25T09:07:09.099Z,49.74
2019-05-25T09:08:09.088Z,48.61
2019-05-25T09:09:09.072Z,51.87
2019-05-25T09:10:09.071Z,52.80
2019-05-25T09:11:09.070Z,53.95
2019-05-25T09:12:09.055Z,52.84
2019-05-25T09:13:09.030Z,51.44
2019-05-25T09:14:09.020Z,51.32
2019-05-25T09:15:09.012Z,53.12
2019-05-25T09:16:09.003Z,48.25
2019-05-25T09:17:09.010Z,46.25
2019-05-25T09:18:08.980Z,46.47
2019-05-25T09:19:08.969Z,47.42
2019-05-25T09:20:08.976Z,48.47
2019-05-25T09:21:08.963Z,49.92
2019-05-25T09:22:08.946Z,47.47
2019-05-25T09:23:08.950Z,46.80
2019-05-25T09:24:08.931Z,49.55
2019-05-25T09:25:08.919Z,47.37
2019-05-25T09:26:08.907Z,42.41
2019-05-25T09:27:08.911Z,42.99
2019-05-25T09:28:08.893Z,46.57
2019-05-25T09:29:08.893Z,48.69
2019-05-25T09:30:08.868Z,47.94
2019-05-25T09:31:08.881Z,46.19
2019-05-25T09:32:08.850Z,49.76
2019-05-25T09:33:08.833Z,49.79
2019-05-25T09:34:08.827Z,49.31
2019-05-25T09:35:08.832Z,49.89
2019-05-25T09:36:08.807Z,48.58
2019-05-25T09:37:08.797Z,48.04
2019-05-25T09:38:08.784Z,48.37
2019-05-25T09:39:08.776Z,47.25
2019-05-25T09:40:08.769Z,47.50
2019-05-25T09:41:08.775Z,43.97
2019-05-25T09:42:08.759Z,44.35
2019-05-25T09:43:08.744Z,45.18
2019-05-25T09:44:08.729Z,42.72
2019-05-25T09:45:08.743Z,42.97
2019-05-25T09:46:08.708Z,42.45
2019-05-25T09:47:08.718Z,45.85
2019-05-25T09:48:08.705Z,48.84
2019-05-25T09:49:08.680Z,48.57
2019-05-25T09:50:08.670Z,48.42
2019-05-25T09:51:15.485Z,47.22
2019-05-25T09:52:09.667Z,48.65
2019-05-25T09:53:08.642Z,46.04
2019-05-25T09:54:08.634Z,46.98
2019-05-25T09:55:08.620Z,48.38
2019-05-25T09:56:08.610Z,48.18
2019-05-25T09:57:08.628Z,46.36
2019-05-25T09:58:08.610Z,45.70
2019-05-25T09:59:19.663Z,43.60
2019-05-25T10:00:09.569Z,43.57
2019-05-25T10:01:08.564Z,43.90
2019-05-25T10:02:08.559Z,44.37
2019-05-25T10:03:08.543Z,42.65
2019-05-25T10:04:08.611Z,44.05
2019-05-25T10:05:08.524Z,47.79
2019-05-25T10:06:12.174Z,44.26
2019-05-25T10:07:08.509Z,43.92
2019-05-25T10:08:08.492Z,42.77
2019-05-25T10:09:08.485Z,39.57
2019-05-25T10:10:08.497Z,41.36
2019-05-25T10:11:08.466Z,42.09
2019-05-25T10:12:08.462Z,43.44
2019-05-25T10:13:08.512Z,42.23
2019-05-25T10:14:08.448Z,42.41
2019-05-25T10:15:08.482Z,43.29
2019-05-25T10:16:08.446Z,44.93
2019-05-25T10:17:08.412Z,43.42
2019-05-25T10:18:08.403Z,43.80
2019-05-25T10:19:08.402Z,45.53
2019-05-25T10:20:08.386Z,46.51
2019-05-25T10:21:08.377Z,46.73
2019-05-25T10:22:08.388Z,45.51
2019-05-25T10:23:08.358Z,44.09
2019-05-25T10:24:08.349Z,43.15
2019-05-25T10:25:08.344Z,45.26
2019-05-25T10:26:08.332Z,44.23
2019-05-25T10:27:08.340Z,43.21
2019-05-25T10:28:08.333Z,44.42
2019-05-25T10:29:08.364Z,41.93
2019-05-25T10:30:08.293Z,44.49
2019-05-25T10:31:08.289Z,45.34
2019-05-25T10:32:08.278Z,47.39
2019-05-25T10:33:08.271Z,44.87
2019-05-25T10:34:08.277Z,44.33
2019-05-25T10:35:08.249Z,49.44
2019-05-25T10:36:08.238Z,47.09
2019-05-25T10:37:08.257Z,48.39
2019-05-25T10:38:08.221Z,48.57
2019-05-25T10:39:08.215Z,50.31
2019-05-25T10:40:08.227Z,51.59
2019-05-25T10:41:08.193Z,48.37
2019-05-25T10:42:08.189Z,48.58
2019-05-25T10:43:08.173Z,43.30
2019-05-25T10:44:08.174Z,44.02
2019-05-25T10:45:08.166Z,44.90
2019-05-25T10:46:08.169Z,43.38
2019-05-25T10:47:08.132Z,41.39
2019-05-25T10:48:08.129Z,41.60
2019-05-25T10:49:11.450Z,42.59
2019-05-25T10:50:08.112Z,45.40
2019-05-25T10:51:08.099Z,48.57
2019-05-25T10:52:08.106Z,48.52
2019-05-25T10:53:08.167Z,49.07
2019-05-25T10:54:08.065Z,47.47
2019-05-25T10:55:08.062Z,43.71
2019-05-25T10:56:08.050Z,45.84
2019-05-25T10:57:08.041Z,41.91
2019-05-25T10:58:08.052Z,44.56
2019-05-25T10:59:08.044Z,42.05
2019-05-25T11:00:08.029Z,42.85
2019-05-25T11:01:08.003Z,45.65
2019-05-25T11:02:07.994Z,42.27
2019-05-25T11:03:07.986Z,43.59
2019-05-25T11:04:07.985Z,42.65
2019-05-25T11:05:07.965Z,46.73
2019-05-25T11:06:07.952Z,44.42
2019-05-25T11:07:07.950Z,45.36
2019-05-25T11:08:07.933Z,44.27
2019-05-25T11:09:07.931Z,44.02
2019-05-25T11:10:07.965Z,41.79
2019-05-25T11:11:07.917Z,43.60
2019-05-25T11:12:07.897Z,42.91
2019-05-25T11:13:07.887Z,46.89
2019-05-25T11:14:07.880Z,44.58
2019-05-25T11:15:07.878Z,41.53
2019-05-25T11:16:07.874Z,42.67
2019-05-25T11:17:07.889Z,44.07
2019-05-25T11:18:07.845Z,45.54
2019-05-25T11:19:07.829Z,44.27
2019-05-25T11:20:07.836Z,43.45
2019-05-25T11:21:07.812Z,43.80
2019-05-25T11:22:07.819Z,46.81
2019-05-25T11:23:07.796Z,43.27
2019-05-25T11:24:07.785Z,44.19
2019-05-25T11:25:07.772Z,46.08
2019-05-25T11:26:07.765Z,46.84
2019-05-25T11:27:07.754Z,45.02
2019-05-25T11:28:08.546Z,46.81
2019-05-25T11:29:07.752Z,45.60
2019-05-25T11:30:09.371Z,45.97
2019-05-25T11:31:07.714Z,44.16
2019-05-25T11:32:07.828Z,44.54
2019-05-25T11:33:07.734Z,43.35
2019-05-25T11:34:07.780Z,41.50
2019-05-25T11:35:07.684Z,41.89
2019-05-25T11:36:07.668Z,41.79
2019-05-25T11:37:07.657Z,42.51
2019-05-25T11:38:07.654Z,44.12
2019-05-25T11:39:07.640Z,45.29
2019-05-25T11:40:07.654Z,45.21
2019-05-25T11:41:07.616Z,45.67
2019-05-25T11:42:07.612Z,47.99
2019-05-25T11:43:07.604Z,45.87
2019-05-25T11:44:07.593Z,48.75
2019-05-25T11:45:07.584Z,48.40
2019-05-25T11:46:07.590Z,48.52
2019-05-25T11:47:07.569Z,48.22
2019-05-25T11:48:07.552Z,46.13
2019-05-25T11:49:21.582Z,45.71
2019-05-25T11:50:08.534Z,45.47
2019-05-25T11:51:07.540Z,45.76
2019-05-25T11:52:07.542Z,48.19
2019-05-25T11:53:07.507Z,48.26
2019-05-25T11:54:07.496Z,48.57
2019-05-25T11:55:07.485Z,48.44
2019-05-25T11:56:07.474Z,49.46
2019-05-25T11:57:07.470Z,48.38
2019-05-25T11:58:07.466Z,48.08
2019-05-25T11:59:07.455Z,49.61
2019-05-25T12:00:07.450Z,48.51
2019-05-25T12:01:07.423Z,48.83
2019-05-25T12:02:07.412Z,49.66
2019-05-25T12:03:07.402Z,50.38
2019-05-25T12:04:07.418Z,51.19
2019-05-25T12:05:07.385Z,48.70
2019-05-25T12:06:07.369Z,48.63
2019-05-25T12:07:07.362Z,52.87
2019-05-25T12:08:07.353Z,50.86
2019-05-25T12:09:07.397Z,51.26
2019-05-25T12:10:07.370Z,51.86
2019-05-25T12:11:07.317Z,50.35
2019-05-25T12:12:07.304Z,51.14
2019-05-25T12:13:07.300Z,51.86
2019-05-25T12:14:07.283Z,53.14
2019-05-25T12:15:07.272Z,52.94
2019-05-25T12:16:07.285Z,49.55
2019-05-25T12:17:07.254Z,50.15
2019-05-25T12:18:07.238Z,52.09
2019-05-25T12:19:07.228Z,53.60
2019-05-25T12:20:07.218Z,53.40
2019-05-25T12:21:07.213Z,54.50
2019-05-25T12:22:07.215Z,51.89
2019-05-25T12:23:07.233Z,51.31
2019-05-25T12:24:07.175Z,51.68
2019-05-25T12:25:07.165Z,51.68
2019-05-25T12:26:07.154Z,50.98
2019-05-25T12:27:07.147Z,53.67
2019-05-25T12:28:07.151Z,51.79
2019-05-25T12:29:07.120Z,51.16
2019-05-25T12:30:07.113Z,54.17
2019-05-25T12:31:07.098Z,51.84
2019-05-25T12:32:07.113Z,51.31
2019-05-25T12:33:07.075Z,51.39
2019-05-25T12:34:07.080Z,51.29
2019-05-25T12:35:07.057Z,49.78
2019-05-25T12:36:07.078Z,51.09
2019-05-25T12:37:07.042Z,49.86
2019-05-25T12:38:07.020Z,49.68
2019-05-25T12:39:07.014Z,52.19
2019-05-25T12:40:07.014Z,49.78
2019-05-25T12:41:06.985Z,51.04
2019-05-25T12:42:06.986Z,52.64
2019-05-25T12:43:06.968Z,51.94
2019-05-25T12:44:06.953Z,53.95
2019-05-25T12:45:06.952Z,51.51
2019-05-25T12:46:06.963Z,52.44
2019-05-25T12:47:06.930Z,51.64
2019-05-25T12:48:06.911Z,51.14
2019-05-25T12:49:07.696Z,51.24
2019-05-25T12:50:06.887Z,51.14
2019-05-25T12:51:06.895Z,52.14
2019-05-25T12:52:06.892Z,52.01